sensor_id;sensor_type;location;lat;lon;timestamp;P1;durP1;ratioP1;P2;durP2;ratioP2
57697;SDS011;43531;52.152;6.366;2024-02-23T00:00:06;1.05;;;0.08;;
57697;SDS011;43531;52.152;6.366;2024-02-23T00:01:11;0.20;;;0.10;;
57697;SDS011;43531;52.152;6.366;2024-02-23T00:01:53;0.20;;;0.20;;
57697;SDS011;43531;52.152;6.366;2024-02-23T00:02:46;1.25;;;0.38;;
57697;SDS011;43531;52.152;6.366;2024-02-23T00:04:07;0.10;;;0.10;;
57697;SDS011;43531;52.152;6.366;2024-02-23T00:05:06;0.35;;;0.10;;
57697;SDS011;43531;52.152;6.366;2024-02-23T00:05:49;0.90;;;0.20;;
57697;SDS011;43531;52.152;6.366;2024-02-23T00:06:48;1.67;;;0.17;;
57697;SDS011;43531;52.152;6.366;2024-02-23T00:07:37;2.53;;;0.30;;
57697;SDS011;43531;52.152;6.366;2024-02-23T00:09:11;0.10;;;0.10;;
57697;SDS011;43531;52.152;6.366;2024-02-23T00:10:03;0.20;;;0.20;;
57697;SDS011;43531;52.152;6.366;2024-02-23T00:11:18;1.98;;;0.20;;
57697;SDS011;43531;52.152;6.366;2024-02-23T00:12:26;0.40;;;0.22;;
57697;SDS011;43531;52.152;6.366;2024-02-23T00:14:51;1.13;;;0.50;;
57697;SDS011;43531;52.152;6.366;2024-02-23T00:16:29;1.10;;;0.28;;
57697;SDS011;43531;52.152;6.366;2024-02-23T00:19:18;2.42;;;0.40;;
57697;SDS011;43531;52.152;6.366;2024-02-23T00:20:53;0.20;;;0.20;;
57697;SDS011;43531;52.152;6.366;2024-02-23T00:22:13;1.20;;;0.30;;
57697;SDS011;43531;52.152;6.366;2024-02-23T00:23:35;0.22;;;0.22;;
57697;SDS011;43531;52.152;6.366;2024-02-23T00:25:01;0.85;;;0.43;;
57697;SDS011;43531;52.152;6.366;2024-02-23T00:28:51;0.35;;;0.13;;
57697;SDS011;43531;52.152;6.366;2024-02-23T00:30:59;0.95;;;0.35;;
57697;SDS011;43531;52.152;6.366;2024-02-23T00:31:54;1.17;;;0.77;;
57697;SDS011;43531;52.152;6.366;2024-02-23T00:34:06;2.97;;;1.15;;
57697;SDS011;43531;52.152;6.366;2024-02-23T00:34:55;4.65;;;0.60;;
57697;SDS011;43531;52.152;6.366;2024-02-23T00:36:21;0.30;;;0.30;;
57697;SDS011;43531;52.152;6.366;2024-02-23T00:37:35;4.50;;;0.50;;
57697;SDS011;43531;52.152;6.366;2024-02-23T00:38:26;3.20;;;0.50;;
57697;SDS011;43531;52.152;6.366;2024-02-23T00:39:27;2.47;;;0.50;;
57697;SDS011;43531;52.152;6.366;2024-02-23T00:40:20;0.60;;;0.60;;
57697;SDS011;43531;52.152;6.366;2024-02-23T00:41:36;5.75;;;0.82;;
57697;SDS011;43531;52.152;6.366;2024-02-23T00:42:25;0.30;;;0.30;;
57697;SDS011;43531;52.152;6.366;2024-02-23T00:43:41;1.10;;;0.60;;
57697;SDS011;43531;52.152;6.366;2024-02-23T00:44:24;3.92;;;0.90;;
57697;SDS011;43531;52.152;6.366;2024-02-23T00:45:12;2.60;;;0.70;;
57697;SDS011;43531;52.152;6.366;2024-02-23T00:46:21;7.25;;;1.02;;
57697;SDS011;43531;52.152;6.366;2024-02-23T00:48:44;0.68;;;0.68;;
57697;SDS011;43531;52.152;6.366;2024-02-23T00:50:29;4.38;;;0.60;;
57697;SDS011;43531;52.152;6.366;2024-02-23T00:51:18;1.67;;;0.70;;
57697;SDS011;43531;52.152;6.366;2024-02-23T00:52:04;3.90;;;0.60;;
57697;SDS011;43531;52.152;6.366;2024-02-23T00:53:25;4.07;;;1.00;;
57697;SDS011;43531;52.152;6.366;2024-02-23T00:54:45;2.63;;;0.95;;
57697;SDS011;43531;52.152;6.366;2024-02-23T00:55:51;2.20;;;0.47;;
57697;SDS011;43531;52.152;6.366;2024-02-23T00:56:54;0.60;;;0.60;;
57697;SDS011;43531;52.152;6.366;2024-02-23T00:58:13;4.10;;;0.60;;
57697;SDS011;43531;52.152;6.366;2024-02-23T00:59:19;4.28;;;0.90;;
57697;SDS011;43531;52.152;6.366;2024-02-23T01:00:17;1.52;;;0.60;;
57697;SDS011;43531;52.152;6.366;2024-02-23T01:01:06;5.63;;;0.88;;
57697;SDS011;43531;52.152;6.366;2024-02-23T01:02:22;1.05;;;0.70;;
57697;SDS011;43531;52.152;6.366;2024-02-23T01:03:35;0.65;;;0.50;;
57697;SDS011;43531;52.152;6.366;2024-02-23T01:04:52;8.27;;;1.20;;
57697;SDS011;43531;52.152;6.366;2024-02-23T01:06:01;4.43;;;1.10;;
57697;SDS011;43531;52.152;6.366;2024-02-23T01:08:52;1.65;;;1.23;;
57697;SDS011;43531;52.152;6.366;2024-02-23T01:10:12;3.25;;;1.10;;
57697;SDS011;43531;52.152;6.366;2024-02-23T01:10:55;2.47;;;0.93;;
57697;SDS011;43531;52.152;6.366;2024-02-23T01:12:16;7.03;;;1.10;;
57697;SDS011;43531;52.152;6.366;2024-02-23T01:13:02;2.47;;;1.30;;
57697;SDS011;43531;52.152;6.366;2024-02-23T01:14:34;2.70;;;0.90;;
57697;SDS011;43531;52.152;6.366;2024-02-23T01:15:49;1.00;;;0.90;;
57697;SDS011;43531;52.152;6.366;2024-02-23T01:16:33;6.32;;;1.42;;
57697;SDS011;43531;52.152;6.366;2024-02-23T01:17:23;7.13;;;1.50;;
57697;SDS011;43531;52.152;6.366;2024-02-23T01:18:35;5.00;;;2.17;;
57697;SDS011;43531;52.152;6.366;2024-02-23T01:19:53;5.90;;;1.55;;
57697;SDS011;43531;52.152;6.366;2024-02-23T01:21:21;1.95;;;1.05;;
57697;SDS011;43531;52.152;6.366;2024-02-23T01:22:11;3.03;;;1.27;;
57697;SDS011;43531;52.152;6.366;2024-02-23T01:23:20;1.23;;;1.02;;
57697;SDS011;43531;52.152;6.366;2024-02-23T01:24:05;2.53;;;1.20;;
57697;SDS011;43531;52.152;6.366;2024-02-23T01:24:54;3.30;;;1.20;;
57697;SDS011;43531;52.152;6.366;2024-02-23T01:25:48;1.70;;;1.13;;
57697;SDS011;43531;52.152;6.366;2024-02-23T01:26:42;8.95;;;1.58;;
57697;SDS011;43531;52.152;6.366;2024-02-23T01:28:05;4.63;;;1.20;;
57697;SDS011;43531;52.152;6.366;2024-02-23T01:29:24;6.95;;;1.38;;
57697;SDS011;43531;52.152;6.366;2024-02-23T01:31:22;1.73;;;0.75;;
57697;SDS011;43531;52.152;6.366;2024-02-23T01:33:56;1.75;;;0.30;;
57697;SDS011;43531;52.152;6.366;2024-02-23T01:35:16;4.28;;;0.73;;
57697;SDS011;43531;52.152;6.366;2024-02-23T01:36:49;0.43;;;0.30;;
57697;SDS011;43531;52.152;6.366;2024-02-23T01:37:51;2.10;;;0.60;;
57697;SDS011;43531;52.152;6.366;2024-02-23T01:38:56;2.53;;;0.40;;
57697;SDS011;43531;52.152;6.366;2024-02-23T01:40:25;2.00;;;0.70;;
57697;SDS011;43531;52.152;6.366;2024-02-23T01:42:44;1.40;;;0.50;;
57697;SDS011;43531;52.152;6.366;2024-02-23T01:43:25;2.80;;;2.15;;
57697;SDS011;43531;52.152;6.366;2024-02-23T01:44:38;8.20;;;0.35;;
57697;SDS011;43531;52.152;6.366;2024-02-23T01:45:47;2.55;;;0.30;;
57697;SDS011;43531;52.152;6.366;2024-02-23T01:46:53;3.83;;;0.50;;
57697;SDS011;43531;52.152;6.366;2024-02-23T01:48:08;3.30;;;0.60;;
57697;SDS011;43531;52.152;6.366;2024-02-23T01:49:03;0.32;;;0.30;;
57697;SDS011;43531;52.152;6.366;2024-02-23T01:50:13;3.53;;;0.63;;
57697;SDS011;43531;52.152;6.366;2024-02-23T01:55:43;5.68;;;1.10;;
57697;SDS011;43531;52.152;6.366;2024-02-23T01:56:35;0.77;;;0.77;;
57697;SDS011;43531;52.152;6.366;2024-02-23T01:58:03;3.50;;;1.25;;
57697;SDS011;43531;52.152;6.366;2024-02-23T01:58:55;1.42;;;1.05;;
57697;SDS011;43531;52.152;6.366;2024-02-23T02:01:05;1.63;;;1.50;;
57697;SDS011;43531;52.152;6.366;2024-02-23T02:02:22;5.80;;;2.80;;
57697;SDS011;43531;52.152;6.366;2024-02-23T02:03:15;2.30;;;1.98;;
57697;SDS011;43531;52.152;6.366;2024-02-23T02:03:59;4.47;;;2.08;;
57697;SDS011;43531;52.152;6.366;2024-02-23T02:05:06;4.38;;;2.70;;
57697;SDS011;43531;52.152;6.366;2024-02-23T02:06:16;6.10;;;2.67;;
57697;SDS011;43531;52.152;6.366;2024-02-23T02:10:29;4.00;;;2.67;;
57697;SDS011;43531;52.152;6.366;2024-02-23T02:11:45;4.25;;;2.85;;
57697;SDS011;43531;52.152;6.366;2024-02-23T02:16:06;3.55;;;3.03;;
57697;SDS011;43531;52.152;6.366;2024-02-23T02:19:20;5.00;;;3.45;;
57697;SDS011;43531;52.152;6.366;2024-02-23T02:22:22;10.10;;;3.15;;
57697;SDS011;43531;52.152;6.366;2024-02-23T02:23:18;6.07;;;3.65;;
57697;SDS011;43531;52.152;6.366;2024-02-23T02:23:50;5.80;;;3.40;;
57697;SDS011;43531;52.152;6.366;2024-02-23T02:24:22;7.70;;;3.60;;
57697;SDS011;43531;52.152;6.366;2024-02-23T02:24:53;7.63;;;4.57;;
57697;SDS011;43531;52.152;6.366;2024-02-23T02:25:25;6.72;;;3.88;;
57697;SDS011;43531;52.152;6.366;2024-02-23T02:25:57;8.43;;;3.38;;
57697;SDS011;43531;52.152;6.366;2024-02-23T02:26:29;7.03;;;2.80;;
57697;SDS011;43531;52.152;6.366;2024-02-23T02:27:02;8.48;;;3.28;;
57697;SDS011;43531;52.152;6.366;2024-02-23T02:27:34;6.15;;;3.15;;
57697;SDS011;43531;52.152;6.366;2024-02-23T02:28:06;8.68;;;2.88;;
57697;SDS011;43531;52.152;6.366;2024-02-23T02:28:39;4.88;;;2.83;;
57697;SDS011;43531;52.152;6.366;2024-02-23T02:29:11;9.45;;;3.17;;
57697;SDS011;43531;52.152;6.366;2024-02-23T02:29:43;7.13;;;3.35;;
57697;SDS011;43531;52.152;6.366;2024-02-23T02:30:14;6.90;;;2.63;;
57697;SDS011;43531;52.152;6.366;2024-02-23T02:30:46;9.55;;;3.80;;
57697;SDS011;43531;52.152;6.366;2024-02-23T02:31:18;6.63;;;3.22;;
57697;SDS011;43531;52.152;6.366;2024-02-23T02:31:49;6.60;;;3.00;;
57697;SDS011;43531;52.152;6.366;2024-02-23T02:32:21;9.80;;;3.45;;
57697;SDS011;43531;52.152;6.366;2024-02-23T02:32:53;6.95;;;2.63;;
57697;SDS011;43531;52.152;6.366;2024-02-23T02:33:25;4.90;;;2.72;;
57697;SDS011;43531;52.152;6.366;2024-02-23T02:33:56;3.75;;;2.78;;
57697;SDS011;43531;52.152;6.366;2024-02-23T02:34:28;4.97;;;2.28;;
57697;SDS011;43531;52.152;6.366;2024-02-23T02:35:00;6.55;;;3.08;;
57697;SDS011;43531;52.152;6.366;2024-02-23T02:35:32;5.30;;;2.60;;
57697;SDS011;43531;52.152;6.366;2024-02-23T02:36:04;5.97;;;3.63;;
57697;SDS011;43531;52.152;6.366;2024-02-23T02:36:35;4.35;;;2.85;;
57697;SDS011;43531;52.152;6.366;2024-02-23T02:37:07;7.55;;;3.30;;
57697;SDS011;43531;52.152;6.366;2024-02-23T02:37:39;4.35;;;2.13;;
57697;SDS011;43531;52.152;6.366;2024-02-23T02:38:11;5.57;;;2.38;;
57697;SDS011;43531;52.152;6.366;2024-02-23T02:38:46;4.70;;;2.47;;
57697;SDS011;43531;52.152;6.366;2024-02-23T02:39:17;7.63;;;2.72;;
57697;SDS011;43531;52.152;6.366;2024-02-23T02:39:49;3.78;;;2.17;;
57697;SDS011;43531;52.152;6.366;2024-02-23T02:40:21;3.95;;;1.85;;
57697;SDS011;43531;52.152;6.366;2024-02-23T02:40:52;13.82;;;3.40;;
57697;SDS011;43531;52.152;6.366;2024-02-23T02:41:24;6.97;;;2.30;;
57697;SDS011;43531;52.152;6.366;2024-02-23T02:42:00;4.50;;;2.30;;
57697;SDS011;43531;52.152;6.366;2024-02-23T02:42:32;13.55;;;2.15;;
57697;SDS011;43531;52.152;6.366;2024-02-23T02:43:04;8.20;;;2.17;;
57697;SDS011;43531;52.152;6.366;2024-02-23T02:43:36;4.45;;;2.00;;
57697;SDS011;43531;52.152;6.366;2024-02-23T02:44:08;3.50;;;2.40;;
57697;SDS011;43531;52.152;6.366;2024-02-23T02:44:41;5.13;;;1.70;;
57697;SDS011;43531;52.152;6.366;2024-02-23T02:45:12;5.07;;;1.50;;
57697;SDS011;43531;52.152;6.366;2024-02-23T02:45:44;10.68;;;2.45;;
57697;SDS011;43531;52.152;6.366;2024-02-23T02:46:15;8.52;;;2.53;;
57697;SDS011;43531;52.152;6.366;2024-02-23T02:46:47;5.10;;;1.85;;
57697;SDS011;43531;52.152;6.366;2024-02-23T02:47:19;3.45;;;2.08;;
57697;SDS011;43531;52.152;6.366;2024-02-23T02:47:51;4.97;;;2.50;;
57697;SDS011;43531;52.152;6.366;2024-02-23T02:48:23;4.88;;;1.10;;
57697;SDS011;43531;52.152;6.366;2024-02-23T02:48:55;5.57;;;1.40;;
57697;SDS011;43531;52.152;6.366;2024-02-23T02:49:26;4.13;;;1.58;;
57697;SDS011;43531;52.152;6.366;2024-02-23T02:49:58;5.18;;;1.65;;
57697;SDS011;43531;52.152;6.366;2024-02-23T02:50:30;3.58;;;1.80;;
57697;SDS011;43531;52.152;6.366;2024-02-23T02:51:02;6.50;;;3.13;;
57697;SDS011;43531;52.152;6.366;2024-02-23T02:51:34;8.00;;;1.92;;
57697;SDS011;43531;52.152;6.366;2024-02-23T02:52:06;6.45;;;1.73;;
57697;SDS011;43531;52.152;6.366;2024-02-23T02:52:39;5.93;;;1.95;;
57697;SDS011;43531;52.152;6.366;2024-02-23T02:53:11;8.10;;;2.13;;
57697;SDS011;43531;52.152;6.366;2024-02-23T02:53:43;5.47;;;2.03;;
57697;SDS011;43531;52.152;6.366;2024-02-23T02:54:17;5.53;;;1.77;;
57697;SDS011;43531;52.152;6.366;2024-02-23T02:54:50;8.73;;;2.55;;
57697;SDS011;43531;52.152;6.366;2024-02-23T02:55:22;2.58;;;1.30;;
57697;SDS011;43531;52.152;6.366;2024-02-23T02:55:53;6.90;;;2.10;;
57697;SDS011;43531;52.152;6.366;2024-02-23T02:56:25;9.95;;;1.50;;
57697;SDS011;43531;52.152;6.366;2024-02-23T02:56:57;6.82;;;2.25;;
57697;SDS011;43531;52.152;6.366;2024-02-23T02:57:29;3.03;;;1.40;;
57697;SDS011;43531;52.152;6.366;2024-02-23T02:58:19;6.03;;;1.75;;
57697;SDS011;43531;52.152;6.366;2024-02-23T02:58:51;13.07;;;1.83;;
57697;SDS011;43531;52.152;6.366;2024-02-23T02:59:23;5.50;;;1.52;;
57697;SDS011;43531;52.152;6.366;2024-02-23T02:59:59;4.25;;;1.40;;
57697;SDS011;43531;52.152;6.366;2024-02-23T03:00:30;6.35;;;1.20;;
57697;SDS011;43531;52.152;6.366;2024-02-23T03:01:03;4.38;;;1.67;;
57697;SDS011;43531;52.152;6.366;2024-02-23T03:01:35;6.50;;;2.25;;
57697;SDS011;43531;52.152;6.366;2024-02-23T03:02:06;7.80;;;1.35;;
57697;SDS011;43531;52.152;6.366;2024-02-23T03:02:38;8.25;;;1.70;;
57697;SDS011;43531;52.152;6.366;2024-02-23T03:03:10;3.55;;;1.10;;
57697;SDS011;43531;52.152;6.366;2024-02-23T03:03:42;5.47;;;1.65;;
57697;SDS011;43531;52.152;6.366;2024-02-23T03:04:14;5.85;;;1.60;;
57697;SDS011;43531;52.152;6.366;2024-02-23T03:04:49;5.90;;;1.23;;
57697;SDS011;43531;52.152;6.366;2024-02-23T03:05:21;4.30;;;2.00;;
57697;SDS011;43531;52.152;6.366;2024-02-23T03:05:53;6.72;;;1.35;;
57697;SDS011;43531;52.152;6.366;2024-02-23T03:06:24;5.53;;;1.40;;
57697;SDS011;43531;52.152;6.366;2024-02-23T03:06:56;6.78;;;0.82;;
57697;SDS011;43531;52.152;6.366;2024-02-23T03:07:28;11.00;;;3.03;;
57697;SDS011;43531;52.152;6.366;2024-02-23T03:08:00;5.85;;;1.10;;
57697;SDS011;43531;52.152;6.366;2024-02-23T03:08:31;4.90;;;1.30;;
57697;SDS011;43531;52.152;6.366;2024-02-23T03:09:03;3.70;;;1.30;;
57697;SDS011;43531;52.152;6.366;2024-02-23T03:09:36;6.70;;;1.20;;
57697;SDS011;43531;52.152;6.366;2024-02-23T03:10:08;14.43;;;1.83;;
57697;SDS011;43531;52.152;6.366;2024-02-23T03:10:39;5.13;;;1.75;;
57697;SDS011;43531;52.152;6.366;2024-02-23T03:11:11;7.05;;;1.17;;
57697;SDS011;43531;52.152;6.366;2024-02-23T03:11:43;7.95;;;1.27;;
57697;SDS011;43531;52.152;6.366;2024-02-23T03:12:15;9.98;;;2.47;;
57697;SDS011;43531;52.152;6.366;2024-02-23T03:12:47;5.05;;;1.38;;
57697;SDS011;43531;52.152;6.366;2024-02-23T03:13:18;6.93;;;1.83;;
57697;SDS011;43531;52.152;6.366;2024-02-23T03:13:50;5.38;;;1.17;;
57697;SDS011;43531;52.152;6.366;2024-02-23T03:14:22;4.82;;;1.05;;
57697;SDS011;43531;52.152;6.366;2024-02-23T03:14:54;3.13;;;1.40;;
57697;SDS011;43531;52.152;6.366;2024-02-23T03:15:27;6.43;;;1.73;;
57697;SDS011;43531;52.152;6.366;2024-02-23T03:15:58;5.50;;;1.15;;
57697;SDS011;43531;52.152;6.366;2024-02-23T03:16:31;5.93;;;1.58;;
57697;SDS011;43531;52.152;6.366;2024-02-23T03:17:02;6.38;;;1.88;;
57697;SDS011;43531;52.152;6.366;2024-02-23T03:17:35;4.70;;;1.77;;
57697;SDS011;43531;52.152;6.366;2024-02-23T03:18:07;7.57;;;1.50;;
57697;SDS011;43531;52.152;6.366;2024-02-23T03:18:41;6.22;;;2.75;;
57697;SDS011;43531;52.152;6.366;2024-02-23T03:19:12;4.60;;;1.17;;
57697;SDS011;43531;52.152;6.366;2024-02-23T03:19:44;4.32;;;1.13;;
57697;SDS011;43531;52.152;6.366;2024-02-23T03:20:16;3.10;;;1.80;;
57697;SDS011;43531;52.152;6.366;2024-02-23T03:20:48;7.30;;;1.75;;
57697;SDS011;43531;52.152;6.366;2024-02-23T03:21:20;5.43;;;1.50;;
57697;SDS011;43531;52.152;6.366;2024-02-23T03:21:51;7.40;;;1.27;;
57697;SDS011;43531;52.152;6.366;2024-02-23T03:22:23;6.70;;;1.75;;
57697;SDS011;43531;52.152;6.366;2024-02-23T03:22:55;4.72;;;0.98;;
57697;SDS011;43531;52.152;6.366;2024-02-23T03:23:27;3.88;;;1.17;;
57697;SDS011;43531;52.152;6.366;2024-02-23T03:23:58;6.10;;;1.10;;
57697;SDS011;43531;52.152;6.366;2024-02-23T03:24:30;9.65;;;1.48;;
57697;SDS011;43531;52.152;6.366;2024-02-23T03:25:02;5.82;;;1.73;;
57697;SDS011;43531;52.152;6.366;2024-02-23T03:25:39;4.15;;;1.42;;
57697;SDS011;43531;52.152;6.366;2024-02-23T03:26:11;4.47;;;1.50;;
57697;SDS011;43531;52.152;6.366;2024-02-23T03:26:42;5.82;;;1.20;;
57697;SDS011;43531;52.152;6.366;2024-02-23T03:27:14;4.43;;;1.00;;
57697;SDS011;43531;52.152;6.366;2024-02-23T03:27:46;3.38;;;1.58;;
57697;SDS011;43531;52.152;6.366;2024-02-23T03:28:18;6.22;;;1.20;;
57697;SDS011;43531;52.152;6.366;2024-02-23T03:28:50;7.63;;;1.23;;
57697;SDS011;43531;52.152;6.366;2024-02-23T03:29:21;5.30;;;1.70;;
57697;SDS011;43531;52.152;6.366;2024-02-23T03:29:55;3.95;;;1.35;;
57697;SDS011;43531;52.152;6.366;2024-02-23T03:30:27;9.15;;;1.05;;
57697;SDS011;43531;52.152;6.366;2024-02-23T03:30:59;4.68;;;1.30;;
57697;SDS011;43531;52.152;6.366;2024-02-23T03:31:31;7.13;;;1.48;;
57697;SDS011;43531;52.152;6.366;2024-02-23T03:32:03;6.05;;;1.70;;
57697;SDS011;43531;52.152;6.366;2024-02-23T03:32:35;4.00;;;1.30;;
57697;SDS011;43531;52.152;6.366;2024-02-23T03:33:11;2.55;;;1.50;;
57697;SDS011;43531;52.152;6.366;2024-02-23T03:33:42;9.68;;;1.90;;
57697;SDS011;43531;52.152;6.366;2024-02-23T03:34:14;4.57;;;1.00;;
57697;SDS011;43531;52.152;6.366;2024-02-23T03:34:46;6.75;;;1.30;;
57697;SDS011;43531;52.152;6.366;2024-02-23T03:35:18;7.40;;;1.85;;
57697;SDS011;43531;52.152;6.366;2024-02-23T03:35:50;5.10;;;1.45;;
57697;SDS011;43531;52.152;6.366;2024-02-23T03:36:21;6.20;;;1.67;;
57697;SDS011;43531;52.152;6.366;2024-02-23T03:36:53;4.18;;;0.80;;
57697;SDS011;43531;52.152;6.366;2024-02-23T03:37:25;2.78;;;0.95;;
57697;SDS011;43531;52.152;6.366;2024-02-23T03:37:56;3.67;;;1.40;;
57697;SDS011;43531;52.152;6.366;2024-02-23T03:38:28;8.43;;;1.77;;
57697;SDS011;43531;52.152;6.366;2024-02-23T03:39:03;6.65;;;1.13;;
57697;SDS011;43531;52.152;6.366;2024-02-23T03:39:34;5.90;;;2.17;;
57697;SDS011;43531;52.152;6.366;2024-02-23T03:40:08;4.60;;;2.72;;
57697;SDS011;43531;52.152;6.366;2024-02-23T03:40:41;7.20;;;1.92;;
57697;SDS011;43531;52.152;6.366;2024-02-23T03:41:13;6.13;;;1.15;;
57697;SDS011;43531;52.152;6.366;2024-02-23T03:41:45;9.55;;;1.35;;
57697;SDS011;43531;52.152;6.366;2024-02-23T03:42:17;5.65;;;1.73;;
57697;SDS011;43531;52.152;6.366;2024-02-23T03:42:48;6.93;;;1.70;;
57697;SDS011;43531;52.152;6.366;2024-02-23T03:43:20;3.13;;;1.85;;
57697;SDS011;43531;52.152;6.366;2024-02-23T03:43:52;7.25;;;1.90;;
57697;SDS011;43531;52.152;6.366;2024-02-23T03:44:24;10.18;;;2.03;;
57697;SDS011;43531;52.152;6.366;2024-02-23T03:44:55;7.22;;;1.50;;
57697;SDS011;43531;52.152;6.366;2024-02-23T03:45:27;5.28;;;1.50;;
57697;SDS011;43531;52.152;6.366;2024-02-23T03:45:59;6.47;;;1.42;;
57697;SDS011;43531;52.152;6.366;2024-02-23T03:46:30;5.97;;;1.95;;
57697;SDS011;43531;52.152;6.366;2024-02-23T03:47:02;7.15;;;1.15;;
57697;SDS011;43531;52.152;6.366;2024-02-23T03:47:34;2.38;;;0.90;;
57697;SDS011;43531;52.152;6.366;2024-02-23T03:48:06;3.67;;;1.92;;
57697;SDS011;43531;52.152;6.366;2024-02-23T03:48:38;6.68;;;1.08;;
57697;SDS011;43531;52.152;6.366;2024-02-23T03:49:09;3.42;;;0.98;;
57697;SDS011;43531;52.152;6.366;2024-02-23T03:49:41;2.97;;;0.98;;
57697;SDS011;43531;52.152;6.366;2024-02-23T03:50:13;2.95;;;1.20;;
57697;SDS011;43531;52.152;6.366;2024-02-23T03:50:45;2.05;;;1.02;;
57697;SDS011;43531;52.152;6.366;2024-02-23T03:51:17;7.22;;;1.70;;
57697;SDS011;43531;52.152;6.366;2024-02-23T03:51:49;2.90;;;1.20;;
57697;SDS011;43531;52.152;6.366;2024-02-23T03:52:20;8.95;;;1.83;;
57697;SDS011;43531;52.152;6.366;2024-02-23T03:52:52;5.40;;;1.08;;
57697;SDS011;43531;52.152;6.366;2024-02-23T03:53:24;7.55;;;1.00;;
57697;SDS011;43531;52.152;6.366;2024-02-23T03:53:55;3.33;;;1.02;;
57697;SDS011;43531;52.152;6.366;2024-02-23T03:54:27;6.93;;;0.85;;
57697;SDS011;43531;52.152;6.366;2024-02-23T03:54:59;9.05;;;2.10;;
57697;SDS011;43531;52.152;6.366;2024-02-23T03:55:31;7.53;;;1.98;;
57697;SDS011;43531;52.152;6.366;2024-02-23T03:56:03;4.30;;;1.25;;
57697;SDS011;43531;52.152;6.366;2024-02-23T03:56:41;11.85;;;1.77;;
57697;SDS011;43531;52.152;6.366;2024-02-23T03:57:13;6.20;;;1.23;;
57697;SDS011;43531;52.152;6.366;2024-02-23T03:57:45;1.83;;;0.93;;
57697;SDS011;43531;52.152;6.366;2024-02-23T03:58:18;8.65;;;1.50;;
57697;SDS011;43531;52.152;6.366;2024-02-23T03:58:49;4.75;;;0.93;;
57697;SDS011;43531;52.152;6.366;2024-02-23T03:59:21;6.53;;;1.08;;
57697;SDS011;43531;52.152;6.366;2024-02-23T03:59:53;4.25;;;0.98;;
57697;SDS011;43531;52.152;6.366;2024-02-23T04:00:25;5.53;;;0.73;;
57697;SDS011;43531;52.152;6.366;2024-02-23T04:00:57;3.85;;;1.33;;
57697;SDS011;43531;52.152;6.366;2024-02-23T04:01:29;6.40;;;2.10;;
57697;SDS011;43531;52.152;6.366;2024-02-23T04:02:00;4.13;;;1.27;;
57697;SDS011;43531;52.152;6.366;2024-02-23T04:02:32;5.57;;;0.90;;
57697;SDS011;43531;52.152;6.366;2024-02-23T04:03:04;3.13;;;1.38;;
57697;SDS011;43531;52.152;6.366;2024-02-23T04:03:36;3.28;;;1.00;;
57697;SDS011;43531;52.152;6.366;2024-02-23T04:04:07;1.77;;;0.95;;
57697;SDS011;43531;52.152;6.366;2024-02-23T04:04:39;3.47;;;0.98;;
57697;SDS011;43531;52.152;6.366;2024-02-23T04:05:11;2.83;;;0.95;;
57697;SDS011;43531;52.152;6.366;2024-02-23T04:05:42;3.80;;;1.00;;
57697;SDS011;43531;52.152;6.366;2024-02-23T04:06:14;4.30;;;1.15;;
57697;SDS011;43531;52.152;6.366;2024-02-23T04:06:46;4.68;;;1.23;;
57697;SDS011;43531;52.152;6.366;2024-02-23T04:07:17;1.58;;;0.80;;
57697;SDS011;43531;52.152;6.366;2024-02-23T04:07:49;10.35;;;0.80;;
57697;SDS011;43531;52.152;6.366;2024-02-23T04:08:21;5.32;;;1.00;;
57697;SDS011;43531;52.152;6.366;2024-02-23T04:08:53;5.03;;;1.38;;
57697;SDS011;43531;52.152;6.366;2024-02-23T04:09:24;3.60;;;1.27;;
57697;SDS011;43531;52.152;6.366;2024-02-23T04:09:56;5.38;;;1.10;;
57697;SDS011;43531;52.152;6.366;2024-02-23T04:10:28;3.67;;;0.52;;
57697;SDS011;43531;52.152;6.366;2024-02-23T04:11:00;1.40;;;0.80;;
57697;SDS011;43531;52.152;6.366;2024-02-23T04:11:32;5.85;;;1.05;;
57697;SDS011;43531;52.152;6.366;2024-02-23T04:12:04;3.65;;;1.00;;
57697;SDS011;43531;52.152;6.366;2024-02-23T04:12:38;4.85;;;1.33;;
57697;SDS011;43531;52.152;6.366;2024-02-23T04:13:10;5.15;;;1.65;;
57697;SDS011;43531;52.152;6.366;2024-02-23T04:13:45;5.00;;;0.88;;
57697;SDS011;43531;52.152;6.366;2024-02-23T04:14:20;6.65;;;1.08;;
57697;SDS011;43531;52.152;6.366;2024-02-23T04:14:51;3.97;;;1.00;;
57697;SDS011;43531;52.152;6.366;2024-02-23T04:15:23;4.55;;;1.23;;
57697;SDS011;43531;52.152;6.366;2024-02-23T04:15:55;2.20;;;1.05;;
57697;SDS011;43531;52.152;6.366;2024-02-23T04:16:28;11.02;;;1.58;;
57697;SDS011;43531;52.152;6.366;2024-02-23T04:17:00;3.00;;;1.00;;
57697;SDS011;43531;52.152;6.366;2024-02-23T04:17:32;6.53;;;1.20;;
57697;SDS011;43531;52.152;6.366;2024-02-23T04:18:04;6.32;;;1.20;;
57697;SDS011;43531;52.152;6.366;2024-02-23T04:18:36;4.35;;;0.98;;
57697;SDS011;43531;52.152;6.366;2024-02-23T04:19:08;5.85;;;1.50;;
57697;SDS011;43531;52.152;6.366;2024-02-23T04:19:43;6.82;;;0.98;;
57697;SDS011;43531;52.152;6.366;2024-02-23T04:20:15;5.60;;;1.13;;
57697;SDS011;43531;52.152;6.366;2024-02-23T04:20:47;5.82;;;1.95;;
57697;SDS011;43531;52.152;6.366;2024-02-23T04:21:18;4.63;;;1.38;;
57697;SDS011;43531;52.152;6.366;2024-02-23T04:21:50;4.50;;;1.05;;
57697;SDS011;43531;52.152;6.366;2024-02-23T04:22:22;4.45;;;1.00;;
57697;SDS011;43531;52.152;6.366;2024-02-23T04:22:54;5.10;;;1.20;;
57697;SDS011;43531;52.152;6.366;2024-02-23T04:23:25;9.18;;;2.50;;
57697;SDS011;43531;52.152;6.366;2024-02-23T04:23:57;1.85;;;1.00;;
57697;SDS011;43531;52.152;6.366;2024-02-23T04:24:29;4.93;;;1.33;;
57697;SDS011;43531;52.152;6.366;2024-02-23T04:25:01;7.35;;;2.25;;
57697;SDS011;43531;52.152;6.366;2024-02-23T04:25:32;6.40;;;1.88;;
57697;SDS011;43531;52.152;6.366;2024-02-23T04:26:04;0.98;;;0.82;;
57697;SDS011;43531;52.152;6.366;2024-02-23T04:26:36;3.15;;;1.10;;
57697;SDS011;43531;52.152;6.366;2024-02-23T04:27:08;3.17;;;0.82;;
57697;SDS011;43531;52.152;6.366;2024-02-23T04:27:39;6.57;;;1.80;;
57697;SDS011;43531;52.152;6.366;2024-02-23T04:28:11;4.72;;;1.80;;
57697;SDS011;43531;52.152;6.366;2024-02-23T04:28:43;11.45;;;1.27;;
57697;SDS011;43531;52.152;6.366;2024-02-23T04:29:14;4.38;;;1.42;;
57697;SDS011;43531;52.152;6.366;2024-02-23T04:29:46;10.52;;;1.88;;
57697;SDS011;43531;52.152;6.366;2024-02-23T04:30:18;8.10;;;1.30;;
57697;SDS011;43531;52.152;6.366;2024-02-23T04:30:49;3.05;;;1.13;;
57697;SDS011;43531;52.152;6.366;2024-02-23T04:31:21;5.00;;;1.60;;
57697;SDS011;43531;52.152;6.366;2024-02-23T04:31:52;4.50;;;1.08;;
57697;SDS011;43531;52.152;6.366;2024-02-23T04:32:24;5.95;;;1.38;;
57697;SDS011;43531;52.152;6.366;2024-02-23T04:32:56;6.15;;;1.40;;
57697;SDS011;43531;52.152;6.366;2024-02-23T04:33:28;6.28;;;1.20;;
57697;SDS011;43531;52.152;6.366;2024-02-23T04:33:59;4.75;;;1.10;;
57697;SDS011;43531;52.152;6.366;2024-02-23T04:34:31;3.67;;;1.38;;
57697;SDS011;43531;52.152;6.366;2024-02-23T04:35:03;2.67;;;0.65;;
57697;SDS011;43531;52.152;6.366;2024-02-23T04:35:35;4.57;;;1.17;;
57697;SDS011;43531;52.152;6.366;2024-02-23T04:36:08;8.48;;;1.33;;
57697;SDS011;43531;52.152;6.366;2024-02-23T04:36:40;7.88;;;1.73;;
57697;SDS011;43531;52.152;6.366;2024-02-23T04:37:11;4.90;;;1.00;;
57697;SDS011;43531;52.152;6.366;2024-02-23T04:37:43;6.75;;;1.58;;
57697;SDS011;43531;52.152;6.366;2024-02-23T04:38:16;3.72;;;0.90;;
57697;SDS011;43531;52.152;6.366;2024-02-23T04:38:48;5.18;;;1.30;;
57697;SDS011;43531;52.152;6.366;2024-02-23T04:39:20;6.03;;;1.50;;
57697;SDS011;43531;52.152;6.366;2024-02-23T04:39:51;6.53;;;2.22;;
57697;SDS011;43531;52.152;6.366;2024-02-23T04:40:23;8.45;;;1.08;;
57697;SDS011;43531;52.152;6.366;2024-02-23T04:40:55;6.15;;;1.30;;
57697;SDS011;43531;52.152;6.366;2024-02-23T04:41:27;5.97;;;1.00;;
57697;SDS011;43531;52.152;6.366;2024-02-23T04:41:59;5.32;;;1.15;;